Terminal Aerodrome Forecast
Issued by NWS

Home | Current Version | Previous Version | Graphics & Text | Print | Product List | Glossary On
Versions: 1 2 3 4 5 6 7 8 9 10 11 12 13 14 15 16 17 18 19 20 21
000
FTUS43 KABR 251735
TAFMBG
TAF
KMBG 251735Z 2518/2618 22005KT P6SM SCT025 BKN040
     FM251900 24007KT P6SM VCSH BKN040
     FM252200 26013KT P6SM -SHRA BKN050
     FM260200 27007KT P6SM SCT150
     FM261600 25009KT P6SM FEW200=

USA.gov is the U.S. government's official web portal to all federal, state and local government web resources and services.